x

Buoy B01 - Western Maine Shelf (44030) Wave Buoy

12:04am - Tue 31st May 2016 All times are EDT. -4 hours from GMT.

  • Sig Wave height 1.6ft
  • Peak Period 5s
  • Wind
    11mph
  • Sea Temp 54°f
  • 空気 Temp 59°f
  • Sea Pressure 1010.3mb
  • Buoy B01 - Western Maine Shelf
  • Buoy B01 - Western Maine Shelf

More Historic Weather Station data

Upgrade to MSW Pro to gain access to the past 30 days of data for over 8000 Wavebouys and Weather Stations around the globe.

Join Pro

Comparision Forecast

View Surf forecast
   
Tue 05/31 12:04am 1.6ft 5s 11
mph
1010.3mb 54f 59f
Mon 05/30 11:04pm 2ft 8s 11
mph
1010.5mb 54f 59f
10:04pm 2ft 4s 11 13 mph 1010.6mb 54f 57f
9:04pm 2.5ft 4s 11 13 mph 1010.3mb 55f 58f
8:04pm 2.5ft 3s 11 13 mph 1010.2mb 55f 57f
7:04pm 2.5ft 5s 13
mph
1010.4mb 55f 58f
6:04pm 2ft 5s 13 18 mph 1010.7mb 55f 56f
5:04pm 2ft 5s 11 13 mph 1011.4mb 55f 55f
4:04pm 2.5ft 5s 11 13 mph 1012mb 55f 55f
3:04pm 0.7ft  -  13 16 mph 1012.6mb 55f 55f
2:04pm 2.5ft 5s 9 11 mph 1013.2mb 55f 54f
1:04pm 2.5ft 5s 9 11 mph 1014.2mb 54f 54f
12:04pm 2.5ft 6s 9 11 mph 1014.6mb 54f 53f
11:04am 2.5ft 6s 9 11 mph 1015.4mb 54f 53f
10:04am 2.5ft 5s 4 7 mph 1015.8mb 54f 52f
9:04am 3ft 6s 4
mph
1016.2mb 54f 52f
8:04am 2.5ft 6s 4
mph
1016.4mb 54f 52f
7:04am 3.5ft 6s 2
mph
1016.5mb 54f 51f
6:04am 3.5ft 6s 4 9 mph 1017.3mb 54f 51f
5:04am 3.5ft 6s 2 4 mph 1017.1mb 54f 51f
4:04am 3ft 6s 4
mph
1017.3mb 54f 51f
3:04am 3ft 6s 2
mph
1018.2mb 54f 51f
2:04am 3.5ft 6s 4
mph
1019mb 54f 51f
1:04am 3.5ft 6s 4
mph
1019.9mb 54f 51f
12:04am 3.5ft 6s 2 4 mph 1020.8mb 54f 51f
Sun 05/29 11:04pm 3.5ft 6s 4
mph
1021.1mb 54f 51f
10:04pm 3.5ft 5s 4 7 mph 1021.7mb 54f 51f
9:04pm 3.5ft 6s 9
mph
1021.8mb 54f 51f
8:04pm 4ft 6s 9 11 mph 1022.1mb 53f 51f
7:04pm 4ft 6s 11 13 mph 1022.1mb 53f 51f
6:04pm 4ft 5s 13
mph
1022.1mb 53f 51f
5:04pm 4ft 6s 11 16 mph 1022.6mb 53f 51f
4:04pm 4.5ft 6s 13 18 mph 1022.9mb 53f 51f
3:04pm 3.5ft 6s 16 18 mph 1023.1mb 53f 51f
2:04pm 4ft 6s 13 16 mph 1023.8mb 53f 52f
1:04pm 4.5ft 6s 13 16 mph 1023.9mb 54f 52f
12:04pm 4.5ft 5s 16 18 mph 1024.2mb 54f 53f
11:04am 4.5ft 5s 18 20 mph 1024.3mb 55f 53f
10:04am 4ft 5s 16 18 mph 1024.2mb 55f 53f
9:04am 3.5ft 5s 18 22 mph 1023.8mb 55f 53f
8:04am 3.5ft 5s 16 20 mph 1023.4mb 55f 53f
7:04am 3.5ft 4s 16 18 mph 1022.8mb 55f 54f
6:04am 3.5ft 5s 18 20 mph 1022.2mb 55f 54f
5:04am 3.5ft 4s 18 22 mph 1021.6mb 55f 54f
4:04am 3.5ft 4s 18 22 mph 1021.3mb 56f 55f
3:04am 3ft 4s 18 22 mph 1021mb 57f 56f
2:04am 2.5ft 4s 16 20 mph 1020.5mb 56f 56f
1:04am 2ft 4s 11 13 mph 1020.3mb 55f 56f
12:04am 2.5ft 3s 11 13 mph 1019.9mb 55f 58f
Sat 05/28 11:04pm 2ft 2s 18 20 mph 1019.2mb 55f 58f
10:04pm 1ft 4s 16 20 mph 1018.9mb 57f 60f
9:04pm 1.3ft 5s 11 16 mph 1018.6mb 58f 61f
8:04pm 1.6ft 5s 4 7 mph 1017.5mb 58f 60f
7:04pm 1.6ft 5s 2
mph
1017.4mb 58f 63f
6:04pm 2ft 5s 2 4 mph 1017.1mb 58f 62f
5:04pm 1.6ft 5s 4 7 mph 1016.8mb 57f 61f
4:04pm 1.6ft 5s 9
mph
1016.7mb 58f 61f
3:04pm 1.6ft 5s 7 9 mph 1016.8mb 57f 60f
2:04pm 2ft 5s 7
mph
1017.2mb 57f 61f
1:04pm 2ft 5s 7
mph
1017.5mb 57f 59f
12:04pm 1.6ft 5s 4 7 mph 1018mb 56f 58f
11:04am 2ft 5s 4
mph
1018.1mb 56f 57f
10:04am 2.5ft 5s 7
mph
1017.8mb 55f 56f
9:04am 2.5ft 5s 4
mph
1017.9mb 55f 55f
8:04am 2.5ft 5s 4
mph
1017.5mb 55f 54f
7:04am 2.5ft 5s 7
mph
1017.3mb 55f 54f
6:04am 2ft 5s 2
mph
1016.6mb 55f 54f
5:04am 2.5ft 5s 4
mph
1016.3mb 54f 53f
4:04am 2.5ft 5s 4 7 mph 1015.8mb 55f 53f
3:04am 2ft 5s 2 4 mph 1015.7mb 55f 52f
2:04am 1.6ft 6s 2
mph
1016.2mb 54f 52f
1:04am 2ft 5s 2
mph
1016.2mb 54f 52f
12:04am 2.5ft 5s 4 7 mph 1016.6mb 54f 52f
Fri 05/27 11:04pm 2ft 5s 2 4 mph 1016.6mb 54f 52f
10:04pm 2ft 5s 4
mph
1016.6mb 54f 52f
9:04pm 2.5ft 5s 4 7 mph 1016.5mb 55f 52f
8:04pm 2.5ft 5s 4 7 mph 1016.4mb 55f 53f
7:04pm 2.5ft 5s 4 7 mph 1016.4mb 55f 53f
6:04pm 2.5ft 5s 4 7 mph 1016.7mb 55f 53f
5:04pm 2.5ft 4s 4
mph
1017.2mb 55f 54f
4:04pm 2.5ft 5s 7 9 mph 1017.5mb 55f 54f
3:04pm 3ft 5s 7 9 mph 1018.2mb 55f 55f
2:04pm 3ft 5s 9
mph
1018.8mb 54f 55f
1:04pm 2.5ft 5s 9 11 mph 1019.5mb 54f 54f
12:04pm 3ft 5s 7 9 mph 1019.9mb 53f 54f
11:04am 2.5ft 5s 7 9 mph 1020mb 54f 54f
10:04am 3ft 5s 7
mph
1020.5mb 53f 54f
9:04am 3ft 5s 7
mph
1020.3mb 53f 53f
8:04am 3ft 5s 9
mph
1020.2mb 53f 53f
7:04am 2.5ft 5s 9
mph
1020.2mb 53f 53f
6:04am 2.5ft 5s 7 9 mph 1020mb 53f 54f